Terminal Aerodrome Forecast
Issued by NWS

Home | Current Version | Previous Version | Text Only | Print | Product List | Glossary On
Versions: 1 2 3 4 5 6 7 8 9 10 11 12 13
000
FTUS45 KABQ 231732
TAFFMN
TAF
KFMN 231732Z 2318/2418 27012G22KT P6SM VCTS SCT060CB BKN120
      TEMPO 2318/2321 P6SM -SHRA OVC050
     FM232100 20015G25KT P6SM VCSH BKN080
     FM240100 22010KT P6SM SCT080
     FM240600 27006KT P6SM SKC
     FM241200 09006KT P6SM SKC=

USA.gov is the U.S. government's official web portal to all federal, state and local government web resources and services.